createdAt,value
2022-08-28T00:01:59.134Z,101424.53
2022-08-28T00:04:25.686Z,101428.31
2022-08-28T00:06:52.241Z,101425.63
2022-08-28T00:09:19.353Z,101427.75
2022-08-28T00:11:47.178Z,101419.84
2022-08-28T00:14:13.902Z,101431.88
2022-08-28T00:16:40.674Z,101426.25
2022-08-28T00:19:07.263Z,101419.50
2022-08-28T00:21:33.905Z,101420.28
2022-08-28T00:24:00.839Z,101418.59
2022-08-28T00:26:46.273Z,101421.53
2022-08-28T00:29:12.900Z,101421.28
2022-08-28T00:31:39.745Z,101421.72
2022-08-28T00:34:08.004Z,101427.41
2022-08-28T00:36:36.048Z,101426.38
2022-08-28T00:39:03.037Z,101412.63
2022-08-28T00:41:31.300Z,101426.75
2022-08-28T00:44:19.329Z,101424.19
2022-08-28T00:46:48.472Z,101424.63
2022-08-28T00:49:17.588Z,101421.81
2022-08-28T00:52:03.154Z,101421.91
2022-08-28T00:54:58.661Z,101427.94
2022-08-28T00:57:37.276Z,101426.03
2022-08-28T01:00:08.074Z,101417.09
2022-08-28T01:02:34.691Z,101420.25
2022-08-28T01:05:01.740Z,101421.94
2022-08-28T01:07:28.597Z,101424.00
2022-08-28T01:09:55.938Z,101431.28
2022-08-28T01:12:29.643Z,101426.66
2022-08-28T01:15:02.042Z,101428.66
2022-08-28T01:17:32.982Z,101430.75
2022-08-28T01:20:09.433Z,101428.03
2022-08-28T01:22:43.236Z,101435.31
2022-08-28T01:25:20.075Z,101432.66
2022-08-28T01:27:46.913Z,101435.09
2022-08-28T01:30:16.692Z,101441.69
2022-08-28T01:32:47.635Z,101438.06
2022-08-28T01:35:17.703Z,101442.91
2022-08-28T01:37:45.745Z,101440.44
2022-08-28T01:40:17.540Z,101438.88
2022-08-28T01:42:45.131Z,101444.03
2022-08-28T01:45:15.624Z,101449.22
2022-08-28T01:47:44.250Z,101452.44
2022-08-28T01:50:16.043Z,101443.69
2022-08-28T01:52:42.817Z,101451.66
2022-08-28T01:55:10.691Z,101460.06
2022-08-28T01:57:48.205Z,101456.56
2022-08-28T02:00:15.772Z,101449.44
2022-08-28T02:02:42.361Z,101456.00
2022-08-28T02:05:10.142Z,101452.84
2022-08-28T02:07:37.349Z,101451.69
2022-08-28T02:10:06.411Z,101462.09
2022-08-28T02:12:32.937Z,101459.81
2022-08-28T02:14:59.509Z,101455.88
2022-08-28T02:17:26.077Z,101462.69
2022-08-28T02:19:52.636Z,101467.94
2022-08-28T02:22:19.164Z,101464.03
2022-08-28T02:24:46.261Z,101470.78
2022-08-28T02:27:12.791Z,101468.84
2022-08-28T02:29:39.370Z,101470.44
2022-08-28T02:32:06.148Z,101473.72
2022-08-28T02:34:34.500Z,101478.19
2022-08-28T02:37:01.026Z,101475.91
2022-08-28T02:39:27.768Z,101479.56
2022-08-28T02:41:54.356Z,101477.41
2022-08-28T02:44:21.125Z,101486.50
2022-08-28T02:46:47.661Z,101478.13
2022-08-28T02:49:14.141Z,101476.53
2022-08-28T02:51:40.668Z,101478.63
2022-08-28T02:54:07.148Z,101483.84
2022-08-28T02:56:34.326Z,101481.56
2022-08-28T02:59:00.827Z,101487.59
2022-08-28T03:01:27.483Z,101490.81
2022-08-28T03:03:53.937Z,101489.28
2022-08-28T03:06:20.890Z,101489.38
2022-08-28T03:08:47.416Z,101491.44
2022-08-28T03:11:13.905Z,101488.28
2022-08-28T03:13:40.649Z,101495.97
2022-08-28T03:16:07.375Z,101490.03
2022-08-28T03:18:34.259Z,101489.31
2022-08-28T03:21:01.109Z,101491.38
2022-08-28T03:23:27.770Z,101485.41
2022-08-28T03:25:55.487Z,101487.06
2022-08-28T03:28:22.336Z,101479.19
2022-08-28T03:30:49.696Z,101480.03
2022-08-28T03:33:16.686Z,101483.97
2022-08-28T03:35:43.446Z,101478.78
2022-08-28T03:38:11.733Z,101486.47
2022-08-28T03:40:43.025Z,101485.28
2022-08-28T03:43:17.937Z,101494.44
2022-08-28T03:46:15.381Z,101496.84
2022-08-28T03:48:44.960Z,101484.47
2022-08-28T03:51:19.539Z,101491.25
2022-08-28T03:53:52.740Z,101489.25
2022-08-28T03:56:24.567Z,101484.91
2022-08-28T03:58:53.373Z,101490.00
2022-08-28T04:01:20.692Z,101497.63
2022-08-28T04:03:47.879Z,101494.88
2022-08-28T04:06:15.933Z,101496.44
2022-08-28T04:08:42.833Z,101488.84
2022-08-28T04:11:10.093Z,101493.63
2022-08-28T04:13:36.836Z,101488.13
2022-08-28T04:16:10.765Z,101503.72
2022-08-28T04:18:43.037Z,101499.81
2022-08-28T04:21:16.359Z,101502.22
2022-08-28T04:23:44.147Z,101502.66
2022-08-28T04:26:13.597Z,101498.31
2022-08-28T04:28:40.626Z,101509.50
2022-08-28T04:31:08.227Z,101498.75
2022-08-28T04:33:34.944Z,101500.47
2022-08-28T04:36:07.908Z,101504.41
2022-08-28T04:38:34.474Z,101507.63
2022-08-28T04:41:12.795Z,101511.22
2022-08-28T04:43:39.820Z,101507.25
2022-08-28T04:46:08.898Z,101514.06
2022-08-28T04:48:35.968Z,101516.44
2022-08-28T04:51:05.568Z,101515.22
2022-08-28T04:53:33.033Z,101506.47
2022-08-28T04:56:00.628Z,101513.22
2022-08-28T04:58:27.822Z,101518.81
2022-08-28T05:00:55.022Z,101517.97
2022-08-28T05:03:21.671Z,101509.59
2022-08-28T05:05:51.895Z,101518.72
2022-08-28T05:08:21.467Z,101523.47
2022-08-28T05:10:48.257Z,101526.69
2022-08-28T05:13:16.132Z,101524.31
2022-08-28T05:15:46.887Z,101529.06
2022-08-28T05:18:14.710Z,101531.03
2022-08-28T05:20:44.885Z,101532.66
2022-08-28T05:23:13.449Z,101531.78
2022-08-28T05:25:42.758Z,101536.19
2022-08-28T05:28:11.985Z,101538.91
2022-08-28T05:30:40.770Z,101541.66
2022-08-28T05:33:08.616Z,101539.22
2022-08-28T05:35:42.367Z,101536.03
2022-08-28T05:38:09.573Z,101537.63
2022-08-28T05:40:43.340Z,101542.72
2022-08-28T05:43:10.536Z,101551.00
2022-08-28T05:45:37.210Z,101551.31
2022-08-28T05:48:04.257Z,101552.06
2022-08-28T05:50:31.307Z,101557.97
2022-08-28T05:52:57.945Z,101551.13
2022-08-28T05:55:24.567Z,101551.88
2022-08-28T05:57:51.143Z,101556.56
2022-08-28T06:00:18.380Z,101563.22
2022-08-28T06:02:45.047Z,101561.22
2022-08-28T06:05:13.003Z,101566.75
2022-08-28T06:07:40.987Z,101559.88
2022-08-28T06:10:07.985Z,101552.19
2022-08-28T06:12:37.716Z,101562.00
2022-08-28T06:15:05.931Z,101570.63
2022-08-28T06:17:32.506Z,101565.75
2022-08-28T06:19:58.980Z,101567.78
2022-08-28T06:22:25.960Z,101570.94
2022-08-28T06:24:52.507Z,101563.94
2022-08-28T06:27:19.064Z,101565.44
2022-08-28T06:29:45.836Z,101562.56
2022-08-28T06:32:12.348Z,101571.72
2022-08-28T06:34:39.300Z,101572.75
2022-08-28T06:37:05.887Z,101579.44
2022-08-28T06:39:32.403Z,101582.91
2022-08-28T06:41:58.932Z,101580.00
2022-08-28T06:44:25.495Z,101579.09
2022-08-28T06:46:54.592Z,101581.75
2022-08-28T06:49:21.428Z,101584.81
2022-08-28T06:51:48.544Z,101583.97
2022-08-28T06:54:22.730Z,101590.66
2022-08-28T06:56:50.004Z,101590.91
2022-08-28T06:59:16.491Z,101584.78
2022-08-28T07:01:43.129Z,101593.47
2022-08-28T07:04:11.866Z,101601.69
2022-08-28T07:06:40.894Z,101595.03
2022-08-28T07:09:11.181Z,101594.88
2022-08-28T07:11:39.354Z,101599.34
2022-08-28T07:14:06.786Z,101593.22
2022-08-28T07:16:38.085Z,101598.22
2022-08-28T07:19:10.482Z,101604.09
2022-08-28T07:21:39.522Z,101603.31
2022-08-28T07:24:07.512Z,101603.66
2022-08-28T07:26:35.638Z,101609.53
2022-08-28T07:29:10.898Z,101603.59
2022-08-28T07:31:41.282Z,101609.53
2022-08-28T07:34:09.733Z,101603.59
2022-08-28T07:36:36.831Z,101607.09
2022-08-28T07:39:05.138Z,101609.38
2022-08-28T07:41:33.795Z,101609.78
2022-08-28T07:44:18.856Z,101610.84
2022-08-28T07:46:45.863Z,101613.47
2022-08-28T07:49:16.886Z,101607.25
2022-08-28T07:51:43.346Z,101606.38
2022-08-28T07:54:17.923Z,101607.88
2022-08-28T07:56:45.511Z,101609.00
2022-08-28T07:59:16.619Z,101608.91
2022-08-28T08:01:46.532Z,101611.34
2022-08-28T08:04:15.963Z,101627.63
2022-08-28T08:06:43.411Z,101625.06
2022-08-28T08:09:12.916Z,101630.06
2022-08-28T08:11:39.443Z,101623.91
2022-08-28T08:14:06.174Z,101628.25
2022-08-28T08:16:35.548Z,101630.13
2022-08-28T08:19:03.344Z,101634.00
2022-08-28T08:21:30.686Z,101630.91
2022-08-28T08:23:57.994Z,101635.44
2022-08-28T08:26:26.110Z,101635.81
2022-08-28T08:28:52.650Z,101641.00
2022-08-28T08:31:22.173Z,101645.47
2022-08-28T08:33:55.192Z,101644.69
2022-08-28T08:36:24.293Z,101638.72
2022-08-28T08:39:00.001Z,101640.88
2022-08-28T08:41:30.294Z,101637.38
2022-08-28T08:43:59.341Z,101636.41
2022-08-28T08:46:48.717Z,101631.53
2022-08-28T08:49:18.907Z,101631.22
2022-08-28T08:52:13.949Z,101631.44
2022-08-28T08:54:43.111Z,101633.94
2022-08-28T08:57:12.895Z,101632.56
2022-08-28T08:59:39.984Z,101643.91
2022-08-28T09:02:14.141Z,101646.66
2022-08-28T09:04:52.912Z,101640.44
2022-08-28T09:07:37.884Z,101642.00
2022-08-28T09:10:11.165Z,101638.72
2022-08-28T09:13:02.290Z,101634.38
2022-08-28T09:15:40.220Z,101637.22
2022-08-28T09:18:19.303Z,101631.66
2022-08-28T09:20:50.591Z,101627.44
2022-08-28T09:23:17.348Z,101649.41
2022-08-28T09:25:52.817Z,101645.00
2022-08-28T09:28:50.607Z,101635.19
2022-08-28T09:31:31.875Z,101635.25
2022-08-28T09:34:24.371Z,101638.22
2022-08-28T09:36:52.976Z,101633.34
2022-08-28T09:39:27.013Z,101631.38
2022-08-28T09:42:37.037Z,101638.94
2022-08-28T09:45:14.593Z,101640.84
2022-08-28T09:47:46.684Z,101645.34
2022-08-28T09:50:31.983Z,101635.63
2022-08-28T09:53:20.485Z,101632.59
2022-08-28T09:56:19.599Z,101631.88
2022-08-28T09:58:56.281Z,101635.34
2022-08-28T10:01:44.583Z,101627.69
2022-08-28T10:04:20.700Z,101627.22
2022-08-28T10:07:05.378Z,101632.91
2022-08-28T10:10:12.648Z,101630.72
2022-08-28T10:13:23.844Z,101625.91
2022-08-28T10:15:59.533Z,101621.38
2022-08-28T10:19:02.105Z,101623.41
2022-08-28T10:21:53.436Z,101622.97
2022-08-28T10:24:52.370Z,101623.28
2022-08-28T10:27:34.161Z,101631.81
2022-08-28T10:30:12.499Z,101620.47
2022-08-28T10:33:07.207Z,101624.38
2022-08-28T10:35:53.096Z,101618.88
2022-08-28T10:38:30.713Z,101618.34
2022-08-28T10:41:08.377Z,101624.16
2022-08-28T10:43:49.615Z,101617.22
2022-08-28T10:46:27.208Z,101620.44
2022-08-28T10:49:04.780Z,101619.00
2022-08-28T10:51:52.174Z,101618.25
2022-08-28T10:54:22.721Z,101620.59
2022-08-28T10:57:18.589Z,101617.00
2022-08-28T10:59:47.813Z,101621.16
2022-08-28T11:02:16.606Z,101616.41
2022-08-28T11:04:46.019Z,101616.97
2022-08-28T11:07:21.234Z,101619.94
2022-08-28T11:09:48.802Z,101621.94
2022-08-28T11:12:19.679Z,101614.75
2022-08-28T11:14:49.443Z,101620.53
2022-08-28T11:17:22.092Z,101617.63
2022-08-28T11:20:20.521Z,101613.91
2022-08-28T11:23:07.238Z,101620.53
2022-08-28T11:25:51.955Z,101620.25
2022-08-28T11:28:22.368Z,101611.91
2022-08-28T11:31:10.297Z,101614.84
2022-08-28T11:33:52.987Z,101617.56
2022-08-28T11:36:19.554Z,101622.72
2022-08-28T11:38:46.459Z,101626.22
2022-08-28T11:41:21.759Z,101626.47
2022-08-28T11:44:09.047Z,101619.53
2022-08-28T11:46:36.753Z,101624.44
2022-08-28T11:49:05.956Z,101609.22
2022-08-28T11:52:00.470Z,101618.72
2022-08-28T11:54:54.273Z,101611.50
2022-08-28T11:57:54.195Z,101609.31
2022-08-28T12:00:27.075Z,101619.84
2022-08-28T12:03:08.468Z,101612.63
2022-08-28T12:05:48.348Z,101602.03
2022-08-28T12:08:54.903Z,101603.34
2022-08-28T12:11:39.604Z,101596.41
2022-08-28T12:14:40.955Z,101599.09
2022-08-28T12:17:17.990Z,101604.88
2022-08-28T12:19:55.895Z,101593.13
2022-08-28T12:22:43.849Z,101596.66
2022-08-28T12:25:22.560Z,101596.22
2022-08-28T12:27:49.660Z,101592.38
2022-08-28T12:30:47.100Z,101598.44
2022-08-28T12:33:24.939Z,101589.50
2022-08-28T12:35:51.528Z,101591.34
2022-08-28T12:38:21.610Z,101581.50
2022-08-28T12:40:50.998Z,101586.69
2022-08-28T12:43:28.350Z,101595.75
2022-08-28T12:45:58.926Z,101585.09
2022-08-28T12:48:31.618Z,101584.59
2022-08-28T12:50:58.462Z,101589.69
2022-08-28T12:53:26.720Z,101577.06
2022-08-28T12:55:55.453Z,101586.63
2022-08-28T12:58:48.455Z,101580.28
2022-08-28T13:01:21.174Z,101583.03
2022-08-28T13:03:54.696Z,101584.66
2022-08-28T13:06:29.048Z,101572.66
2022-08-28T13:09:06.783Z,101579.41
2022-08-28T13:11:44.734Z,101574.69
2022-08-28T13:14:11.557Z,101570.13
2022-08-28T13:16:45.379Z,101567.19
2022-08-28T13:19:30.903Z,101564.31
2022-08-28T13:22:01.788Z,101570.53
2022-08-28T13:24:37.260Z,101562.34
2022-08-28T13:27:09.370Z,101560.66
2022-08-28T13:29:36.880Z,101563.59
2022-08-28T13:32:07.170Z,101564.84
2022-08-28T13:34:38.887Z,101566.03
2022-08-28T13:37:40.946Z,101558.03
2022-08-28T13:40:19.719Z,101550.38
2022-08-28T13:43:02.530Z,101543.94
2022-08-28T13:45:31.562Z,101543.00
2022-08-28T13:48:11.468Z,101545.88
2022-08-28T13:50:42.068Z,101549.72
2022-08-28T13:53:12.247Z,101550.72
2022-08-28T13:55:39.223Z,101554.66
2022-08-28T13:58:05.783Z,101542.72
2022-08-28T14:00:36.167Z,101543.19
2022-08-28T14:03:21.327Z,101546.97
2022-08-28T14:05:48.109Z,101544.97
2022-08-28T14:08:14.987Z,101541.47
2022-08-28T14:10:42.336Z,101533.56
2022-08-28T14:13:08.951Z,101525.50
2022-08-28T14:15:35.718Z,101532.63
2022-08-28T14:18:02.255Z,101527.06
2022-08-28T14:20:29.258Z,101519.94
2022-08-28T14:22:55.816Z,101524.75
2022-08-28T14:25:22.391Z,101528.84
2022-08-28T14:27:49.400Z,101519.38
2022-08-28T14:30:16.434Z,101528.09
2022-08-28T14:32:43.119Z,101519.81
2022-08-28T14:35:09.742Z,101518.91
2022-08-28T14:37:36.249Z,101524.28
2022-08-28T14:40:03.812Z,101511.03
2022-08-28T14:42:30.415Z,101507.97
2022-08-28T14:44:56.998Z,101517.41
2022-08-28T14:47:24.891Z,101521.44
2022-08-28T14:49:51.555Z,101521.03
2022-08-28T14:52:19.438Z,101520.94
2022-08-28T14:54:46.242Z,101508.50
2022-08-28T14:57:13.569Z,101518.34
2022-08-28T14:59:40.192Z,101512.94
2022-08-28T15:02:07.787Z,101514.53
2022-08-28T15:04:35.354Z,101520.75
2022-08-28T15:07:06.382Z,101517.13
2022-08-28T15:09:36.580Z,101511.72
2022-08-28T15:12:03.376Z,101505.00
2022-08-28T15:14:30.352Z,101497.75
2022-08-28T15:16:57.048Z,101499.63
2022-08-28T15:19:24.114Z,101505.22
2022-08-28T15:21:53.686Z,101505.00
2022-08-28T15:24:27.964Z,101511.25
2022-08-28T15:26:54.965Z,101506.09
2022-08-28T15:29:21.615Z,101505.84
2022-08-28T15:31:50.065Z,101505.84
2022-08-28T15:34:20.932Z,101512.78
2022-08-28T15:36:49.181Z,101506.28
2022-08-28T15:39:41.368Z,101517.31
2022-08-28T15:42:09.016Z,101525.69
2022-08-28T15:44:35.569Z,101518.75
2022-08-28T15:47:03.135Z,101511.63
2022-08-28T15:49:32.258Z,101505.50
2022-08-28T15:52:03.129Z,101509.53
2022-08-28T15:54:31.806Z,101505.06
2022-08-28T15:56:58.424Z,101504.41
2022-08-28T15:59:37.968Z,101501.69
2022-08-28T16:02:14.356Z,101500.03
2022-08-28T16:04:41.001Z,101502.81
2022-08-28T16:07:07.567Z,101499.13
2022-08-28T16:09:34.087Z,101501.25
2022-08-28T16:12:00.622Z,101505.88
2022-08-28T16:14:27.146Z,101507.63
2022-08-28T16:16:53.758Z,101494.41
2022-08-28T16:19:20.496Z,101501.25
2022-08-28T16:21:47.000Z,101501.03
2022-08-28T16:24:13.525Z,101501.03
2022-08-28T16:26:40.197Z,101496.44
2022-08-28T16:29:06.774Z,101497.56
2022-08-28T16:31:34.299Z,101503.34
2022-08-28T16:34:02.327Z,101498.31
2022-08-28T16:36:29.991Z,101499.06
2022-08-28T16:39:00.364Z,101507.31
2022-08-28T16:41:31.969Z,101503.59
2022-08-28T16:43:59.185Z,101498.31
2022-08-28T16:46:26.837Z,101505.16
2022-08-28T16:48:54.274Z,101504.16
2022-08-28T16:51:21.495Z,101505.53
2022-08-28T16:53:48.325Z,101503.56
2022-08-28T16:56:17.100Z,101504.34
2022-08-28T17:27:42.175Z,101516.31
2022-08-28T17:30:09.690Z,101514.44
2022-08-28T17:32:36.948Z,101524.19
2022-08-28T17:35:05.394Z,101521.38
2022-08-28T17:37:32.393Z,101523.28
2022-08-28T17:39:59.157Z,101523.31
2022-08-28T17:42:25.949Z,101526.31
2022-08-28T17:44:52.512Z,101530.56
2022-08-28T17:47:19.417Z,101525.50
2022-08-28T17:49:54.841Z,101524.59
2022-08-28T17:52:21.357Z,101526.34
2022-08-28T17:54:47.826Z,101530.44
2022-08-28T17:57:16.515Z,101535.47
2022-08-28T17:59:43.060Z,101526.50
2022-08-28T18:02:09.828Z,101534.19
2022-08-28T18:04:36.794Z,101537.31
2022-08-28T18:07:03.371Z,101536.53
2022-08-28T18:09:29.945Z,101537.16
2022-08-28T18:11:56.474Z,101543.09
2022-08-28T18:14:23.074Z,101551.09
2022-08-28T18:16:49.643Z,101544.50
2022-08-28T18:19:16.644Z,101546.84
2022-08-28T18:21:43.829Z,101555.44
2022-08-28T18:24:12.901Z,101553.88
2022-08-28T18:26:40.946Z,101554.19
2022-08-28T18:29:07.490Z,101553.69
2022-08-28T18:31:34.047Z,101561.97
2022-08-28T18:34:00.719Z,101571.53
2022-08-28T18:36:27.725Z,101568.66
2022-08-28T18:38:54.268Z,101569.03
2022-08-28T18:41:21.212Z,101567.63
2022-08-28T18:43:55.954Z,101583.13
2022-08-28T18:46:24.592Z,101580.25
2022-08-28T18:48:53.140Z,101577.06
2022-08-28T18:51:21.694Z,101580.91
2022-08-28T18:53:48.755Z,101579.50
2022-08-28T18:56:16.118Z,101583.06
2022-08-28T18:58:43.253Z,101592.88
2022-08-28T19:01:10.247Z,101589.88
2022-08-28T19:03:36.911Z,101589.66
2022-08-28T19:06:04.236Z,101601.06
2022-08-28T19:08:32.846Z,101606.59
2022-08-28T19:10:59.728Z,101607.66
2022-08-28T19:13:27.813Z,101613.09
2022-08-28T19:15:54.433Z,101608.16
2022-08-28T19:18:21.025Z,101611.09
2022-08-28T19:20:48.020Z,101618.88
2022-08-28T19:23:17.669Z,101619.56
2022-08-28T19:25:45.606Z,101629.06
2022-08-28T19:28:12.226Z,101628.06
2022-08-28T19:30:38.800Z,101640.69
2022-08-28T19:33:05.894Z,101636.97
2022-08-28T19:35:33.708Z,101641.22
2022-08-28T19:38:00.395Z,101642.25
2022-08-28T19:40:27.445Z,101649.69
2022-08-28T19:42:54.129Z,101639.88
2022-08-28T19:45:20.961Z,101646.88
2022-08-28T19:47:47.563Z,101647.88
2022-08-28T19:50:15.590Z,101648.19
2022-08-28T19:52:43.405Z,101654.38
2022-08-28T19:55:19.273Z,101655.50
2022-08-28T19:57:46.872Z,101657.16
2022-08-28T20:00:15.070Z,101658.16
2022-08-28T20:02:41.576Z,101663.13
2022-08-28T20:05:08.696Z,101658.03
2022-08-28T20:07:35.228Z,101666.09
2022-08-28T20:10:02.072Z,101671.38
2022-08-28T20:12:28.594Z,101667.53
2022-08-28T20:14:55.154Z,101671.41
2022-08-28T20:17:22.014Z,101669.84
2022-08-28T20:19:48.548Z,101668.28
2022-08-28T20:22:15.242Z,101671.97
2022-08-28T20:24:41.963Z,101663.28
2022-08-28T20:27:08.530Z,101665.41
2022-08-28T20:29:35.108Z,101669.63
2022-08-28T20:32:02.109Z,101669.75
2022-08-28T20:34:29.123Z,101673.19
2022-08-28T20:36:55.741Z,101676.97
2022-08-28T20:39:22.590Z,101680.84
2022-08-28T20:41:49.705Z,101677.69
2022-08-28T20:44:18.756Z,101683.81
2022-08-28T20:46:51.256Z,101685.13
2022-08-28T20:49:21.655Z,101693.19
2022-08-28T20:51:56.531Z,101694.88
2022-08-28T20:54:27.934Z,101692.94
2022-08-28T20:56:57.218Z,101699.00
2022-08-28T20:59:24.321Z,101701.53
2022-08-28T21:01:56.133Z,101698.81
2022-08-28T21:04:23.312Z,101691.34
2022-08-28T21:06:50.488Z,101694.75
2022-08-28T21:09:17.946Z,101690.03
2022-08-28T21:11:44.860Z,101709.41
2022-08-28T21:14:11.594Z,101707.47
2022-08-28T21:16:39.310Z,101719.03
2022-08-28T21:19:15.807Z,101713.50
2022-08-28T21:21:43.678Z,101714.44
2022-08-28T21:24:12.513Z,101715.94
2022-08-28T21:26:48.966Z,101712.75
2022-08-28T21:29:16.826Z,101713.19
2022-08-28T21:31:44.414Z,101710.53
2022-08-28T21:34:11.777Z,101724.94
2022-08-28T21:36:41.545Z,101725.00
2022-08-28T21:39:08.050Z,101725.06
2022-08-28T21:41:34.695Z,101723.59
2022-08-28T21:44:01.339Z,101724.41
2022-08-28T21:46:28.154Z,101717.78
2022-08-28T21:48:56.456Z,101729.88
2022-08-28T21:51:24.461Z,101728.28
2022-08-28T21:53:52.141Z,101718.78
2022-08-28T21:56:22.830Z,101725.72
2022-08-28T21:58:50.548Z,101732.59
2022-08-28T22:01:18.272Z,101726.72
2022-08-28T22:03:44.983Z,101723.19
2022-08-28T22:06:14.394Z,101735.16
2022-08-28T22:08:41.984Z,101731.22
2022-08-28T22:11:09.617Z,101728.91
2022-08-28T22:13:37.092Z,101737.81
2022-08-28T22:16:05.402Z,101727.97
2022-08-28T22:18:34.187Z,101742.84
2022-08-28T22:21:20.272Z,101736.94
2022-08-28T22:23:47.108Z,101747.38
2022-08-28T22:26:20.147Z,101747.88
2022-08-28T22:28:46.957Z,101742.34
2022-08-28T22:31:13.857Z,101747.63
2022-08-28T22:33:41.325Z,101742.50
2022-08-28T22:36:09.848Z,101748.22
2022-08-28T22:38:37.979Z,101746.38
2022-08-28T22:41:04.996Z,101756.47
2022-08-28T22:43:31.595Z,101747.34
2022-08-28T22:45:58.169Z,101746.19
2022-08-28T22:48:24.729Z,101741.84
2022-08-28T22:50:51.224Z,101748.41
2022-08-28T22:53:17.812Z,101738.53
2022-08-28T22:55:44.880Z,101737.00
2022-08-28T22:58:12.856Z,101730.69
2022-08-28T23:00:41.694Z,101736.72
2022-08-28T23:03:08.526Z,101736.41
2022-08-28T23:05:35.227Z,101734.91
2022-08-28T23:08:01.796Z,101739.72
2022-08-28T23:10:48.294Z,101741.34
2022-08-28T23:13:15.694Z,101735.78
2022-08-28T23:15:43.445Z,101737.44
2022-08-28T23:18:10.986Z,101725.88
2022-08-28T23:20:37.578Z,101739.56
2022-08-28T23:23:04.125Z,101734.78
2022-08-28T23:25:30.712Z,101735.22
2022-08-28T23:27:57.291Z,101727.34
2022-08-28T23:30:24.385Z,101723.06
2022-08-28T23:32:52.957Z,101726.75
2022-08-28T23:35:20.559Z,101725.53
2022-08-28T23:37:51.944Z,101721.19
2022-08-28T23:40:21.959Z,101720.03
2022-08-28T23:42:48.914Z,101723.66
2022-08-28T23:45:17.417Z,101714.09
2022-08-28T23:47:44.953Z,101719.72
2022-08-28T23:50:15.769Z,101709.41
2022-08-28T23:52:43.124Z,101715.84
2022-08-28T23:55:12.273Z,101709.50
2022-08-28T23:57:38.836Z,101715.91
